Gulf Diver Vi — WDE6941 — position and weather

sailwx.info

Track history (hours):
 
Tides and Currents Weather Stations Pressure Air Temp Water Temp Dewpoint Dewpoint Depression Visibility Wind Speed Wind Dir Waves Ship Positions

Gulf Diver Vi

Owner: C-Dive, LLC, Houma, LA. More information available from US FCC via Universal Licensing System and Coast Guard Vessel Documentation Center.

Last reported at 2017-Aug-20 11:49 UTC. Time now 2017-Nov-21 02:44 UTC.
Position N 29°48' W 093°21'.
Warning: this ship's position is months out of date.

Length 60 m; draft 3.8 m.

Type: Diving. MMSI: 367386880.

Date/timePositionNaut miles runAvg speedWind from/ knotsBaromVisibWave heightAir tempDewpointWater temp
2017-Aug-20 11:49N 29°48' W 093°21'2 2.5
2017-Aug-20 11:05N 29°49' W 093°20'0 0.0
2017-Aug-20 10:53N 29°49' W 093°20'2 1.0
2017-Aug-20 08:32N 29°47' W 093°20'0 0.0
2017-Aug-20 08:20N 29°47' W 093°20'2 1.1
2017-Aug-20 06:17N 29°49' W 093°20'0 0.0
2017-Aug-20 05:56N 29°49' W 093°20'0 0.0
2017-Aug-20 05:26N 29°49' W 093°20'0 0.0
2017-Aug-20 04:17N 29°49' W 093°20'0 0.0
2017-Aug-20 03:50N 29°49' W 093°20'0 0.1
2017-Aug-20 03:23N 29°49' W 093°20'1 1.6
2017-Aug-20 02:59N 29°49' W 093°21'  
2017-Aug-13 11:41N 29°43' W 093°20'3 9.4
2017-Aug-13 11:24N 29°45' W 093°21'3 7.3
2017-Aug-13 11:00N 29°48' W 093°21'1 2.0
2017-Aug-13 10:26N 29°49' W 093°20'1 1.4
2017-Aug-13 09:58N 29°49' W 093°21'2 4.8
2017-Aug-13 09:27N 29°46' W 093°21'0 0.0
2017-Aug-13 08:57N 29°46' W 093°21'0 0.0
2017-Aug-13 08:27N 29°46' W 093°21'0 0.0
2017-Aug-13 08:00N 29°46' W 093°21'0 0.1
2017-Aug-13 07:29N 29°46' W 093°21'3 5.9
2017-Aug-13 06:58N 29°49' W 093°20'0 0.1
2017-Aug-13 06:28N 29°49' W 093°20'0 0.0
2017-Aug-13 05:58N 29°49' W 093°20'0 0.0
2017-Aug-13 05:28N 29°49' W 093°20'0 0.0
2017-Aug-13 04:58N 29°49' W 093°20'0 0.0
2017-Aug-13 04:28N 29°49' W 093°20'0 0.0
2017-Aug-13 03:58N 29°49' W 093°20'0 0.0
2017-Aug-13 03:25N 29°49' W 093°20'0 0.0
2017-Aug-13 02:58N 29°49' W 093°20'0 0.0
2017-Aug-13 02:28N 29°49' W 093°20'0 0.0
2017-Aug-13 01:58N 29°49' W 093°20'0 0.0
2017-Aug-13 01:22N 29°49' W 093°20'0 0.0
2017-Aug-13 00:58N 29°49' W 093°20'0 0.0
2017-Aug-13 00:22N 29°49' W 093°20'0 0.0
2017-Aug-12 23:58N 29°49' W 093°20'0 0.0
2017-Aug-12 23:28N 29°49' W 093°20'0 0.0
2017-Aug-12 22:55N 29°49' W 093°20'0 0.0
2017-Aug-12 22:28N 29°49' W 093°20'0 0.0
2017-Aug-12 21:58N 29°49' W 093°20'0 0.0
2017-Aug-12 21:28N 29°49' W 093°20'0 0.0
2017-Aug-12 20:58N 29°49' W 093°20'0 0.0
2017-Aug-12 20:16N 29°49' W 093°20'0 0.0
2017-Aug-12 19:58N 29°49' W 093°20'0 0.0
2017-Aug-12 19:16N 29°49' W 093°20'0 0.0
2017-Aug-12 18:58N 29°49' W 093°20'0 0.0
2017-Aug-12 18:25N 29°49' W 093°20'0 0.0
2017-Aug-12 17:58N 29°49' W 093°20'0 0.0
2017-Aug-12 17:22N 29°49' W 093°20'0 0.0
2017-Aug-12 16:58N 29°49' W 093°20'0 0.0
2017-Aug-12 16:28N 29°49' W 093°20'0 0.0
2017-Aug-12 15:40N 29°49' W 093°20'0 0.0
2017-Aug-12 15:28N 29°49' W 093°20'0 0.0
2017-Aug-12 14:58N 29°49' W 093°20'0 0.0
2017-Aug-12 14:28N 29°49' W 093°20'0 0.0
2017-Aug-12 13:52N 29°49' W 093°20'0 0.0
2017-Aug-12 13:28N 29°49' W 093°20'0 0.0
2017-Aug-12 12:58N 29°49' W 093°20'0 0.0
2017-Aug-12 12:28N 29°49' W 093°20'0 0.0
2017-Aug-12 11:58N 29°49' W 093°20'0 0.0
2017-Aug-12 11:25N 29°49' W 093°20'0 0.0
2017-Aug-12 10:58N 29°49' W 093°20'0 0.0
2017-Aug-12 10:28N 29°49' W 093°20'0 0.0
2017-Aug-12 09:52N 29°49' W 093°20'0 0.0
2017-Aug-12 09:19N 29°49' W 093°20'0 0.0
2017-Aug-12 08:58N 29°49' W 093°20'0 0.0
2017-Aug-12 08:28N 29°49' W 093°20'0 0.0
2017-Aug-12 07:58N 29°49' W 093°20'0 0.0
2017-Aug-12 07:22N 29°49' W 093°20'0 0.0
2017-Aug-12 06:58N 29°49' W 093°20'0 0.0
2017-Aug-12 06:28N 29°49' W 093°20'0 0.0
2017-Aug-12 05:07N 29°49' W 093°20'0 0.0
2017-Aug-12 04:34N 29°49' W 093°20'0 0.0
2017-Aug-12 04:13N 29°49' W 093°20'0 0.0
2017-Aug-12 03:40N 29°49' W 093°20'0 0.0
2017-Aug-12 03:28N 29°49' W 093°20'0 0.0
2017-Aug-12 02:55N 29°49' W 093°20'0 0.0
2017-Aug-12 02:28N 29°49' W 093°20'0 0.0
2017-Aug-12 01:52N 29°49' W 093°20'0 0.0
2017-Aug-12 01:28N 29°49' W 093°20'0 0.0
2017-Aug-12 00:55N 29°49' W 093°20'0 0.0
2017-Aug-12 00:22N 29°49' W 093°20'0 0.0
2017-Aug-11 23:50N 29°49' W 093°20'0 0.0
2017-Aug-11 23:26N 29°49' W 093°20'0 0.0
2017-Aug-11 22:59N 29°49' W 093°20'0 0.0
2017-Aug-11 22:23N 29°49' W 093°20'0 0.0
2017-Aug-11 21:56N 29°49' W 093°20'0 0.0
2017-Aug-11 21:26N 29°49' W 093°20'0 0.0
2017-Aug-11 20:56N 29°49' W 093°20'0 0.0
2017-Aug-11 20:29N 29°49' W 093°20'0 0.0
2017-Aug-11 19:56N 29°49' W 093°20'0 0.0
2017-Aug-11 19:30N 29°49' W 093°20'0 0.0
2017-Aug-11 19:00N 29°49' W 093°20'0 0.0
2017-Aug-11 18:24N 29°49' W 093°20'0 0.0
2017-Aug-11 17:51N 29°49' W 093°20'0 0.0
2017-Aug-11 17:30N 29°49' W 093°20'0 0.0
2017-Aug-11 17:00N 29°49' W 093°20'0 0.0
2017-Aug-11 16:24N 29°49' W 093°20'0 0.0
2017-Aug-11 15:54N 29°49' W 093°20'0 0.0
2017-Aug-11 15:27N 29°49' W 093°20'0 0.0
2017-Aug-11 14:42N 29°49' W 093°20'0 0.0
2017-Aug-11 14:00N 29°49' W 093°20'0 0.0
2017-Aug-11 13:27N 29°49' W 093°20'0 0.0
2017-Aug-11 12:57N 29°49' W 093°20'0 0.0
2017-Aug-11 12:30N 29°49' W 093°20'0 0.0
2017-Aug-11 12:00N 29°49' W 093°20'0 0.0
2017-Aug-11 11:30N 29°49' W 093°20'0 0.0
2017-Aug-11 11:00N 29°49' W 093°20'0 0.0
2017-Aug-11 10:30N 29°49' W 093°20'0 0.0
2017-Aug-11 10:00N 29°49' W 093°20'0 0.0
2017-Aug-11 09:30N 29°49' W 093°20'0 0.0
2017-Aug-11 09:00N 29°49' W 093°20'0 0.0
2017-Aug-11 08:30N 29°49' W 093°20'0 0.0
2017-Aug-11 08:00N 29°49' W 093°20'0 0.0
2017-Aug-11 07:30N 29°49' W 093°20'0 0.0
2017-Aug-11 06:51N 29°49' W 093°20'0 0.0
2017-Aug-11 06:30N 29°49' W 093°20'0 0.0
2017-Aug-11 06:00N 29°49' W 093°20'0 0.0
2017-Aug-11 05:24N 29°49' W 093°20'0 0.0
2017-Aug-11 04:54N 29°49' W 093°20'0 0.0
2017-Aug-11 04:27N 29°49' W 093°20'0 0.0
2017-Aug-11 03:54N 29°49' W 093°20'0 0.0
2017-Aug-11 03:27N 29°49' W 093°20'0 0.0
2017-Aug-11 03:00N 29°49' W 093°20'0 0.0
2017-Aug-11 02:30N 29°49' W 093°20'0 0.0
2017-Aug-11 02:00N 29°49' W 093°20'0 0.0
2017-Aug-11 01:30N 29°49' W 093°20'0 0.0
2017-Aug-11 00:54N 29°49' W 093°20'0 0.2
2017-Aug-11 00:27N 29°49' W 093°20'0 0.0
2017-Aug-10 23:59N 29°49' W 093°20'0 0.2
2017-Aug-10 23:20N 29°49' W 093°20'0 0.0
2017-Aug-10 22:56N 29°49' W 093°20'0 0.0
2017-Aug-10 22:29N 29°49' W 093°20'0 0.0
2017-Aug-10 21:59N 29°49' W 093°20'0 0.0
2017-Aug-10 21:29N 29°49' W 093°20'0 0.0
2017-Aug-10 20:59N 29°49' W 093°20'0 0.0
2017-Aug-10 20:29N 29°49' W 093°20'0 0.0
2017-Aug-10 19:59N 29°49' W 093°20'0 0.0
2017-Aug-10 19:28N 29°49' W 093°20'0 0.0
2017-Aug-10 18:58N 29°49' W 093°20'0 0.0
2017-Aug-10 18:28N 29°49' W 093°20'0 0.0
2017-Aug-10 17:58N 29°49' W 093°20'0 0.0
2017-Aug-10 17:28N 29°49' W 093°20'0 0.0
2017-Aug-10 16:58N 29°49' W 093°20'0 0.0
2017-Aug-10 16:28N 29°49' W 093°20'0 0.0
2017-Aug-10 15:58N 29°49' W 093°20'0 0.0
2017-Aug-10 15:25N 29°49' W 093°20'0 0.0
2017-Aug-10 14:55N 29°49' W 093°20'0 0.0
2017-Aug-10 14:25N 29°49' W 093°20'0 0.0
2017-Aug-10 13:55N 29°49' W 093°20'0 0.0
2017-Aug-10 13:28N 29°49' W 093°20'0 0.0
2017-Aug-10 12:58N 29°49' W 093°20'0 0.0
2017-Aug-10 12:25N 29°49' W 093°20'0 0.0
2017-Aug-10 11:55N 29°49' W 093°20'  
Track history (hours):
 
Tides and Currents Weather Stations Pressure Air Temp Water Temp Dewpoint Dewpoint Depression Visibility Wind Speed Wind Dir Waves Ship Positions

Gulf Diver Vi

Owner: C-Dive, LLC, Houma, LA. More information available from US FCC via Universal Licensing System and Coast Guard Vessel Documentation Center.

Last reported at 2017-Aug-20 11:49 UTC. Time now 2017-Nov-21 02:44 UTC.
Position N 29°48' W 093°21'.
Warning: this ship's position is months out of date.

Length 60 m; draft 3.8 m.

Type: Diving. MMSI: 367386880.

Date/timePositionNaut miles runAvg speedWind from/ knotsBaromVisibWave heightAir tempDewpointWater temp
2017-Aug-20 11:49N 29°48' W 093°21'2 2.5
2017-Aug-20 11:05N 29°49' W 093°20'0 0.0
2017-Aug-20 10:53N 29°49' W 093°20'2 1.0
2017-Aug-20 08:32N 29°47' W 093°20'0 0.0
2017-Aug-20 08:20N 29°47' W 093°20'2 1.1
2017-Aug-20 06:17N 29°49' W 093°20'0 0.0
2017-Aug-20 05:56N 29°49' W 093°20'0 0.0
2017-Aug-20 05:26N 29°49' W 093°20'0 0.0
2017-Aug-20 04:17N 29°49' W 093°20'0 0.0
2017-Aug-20 03:50N 29°49' W 093°20'0 0.1
2017-Aug-20 03:23N 29°49' W 093°20'1 1.6
2017-Aug-20 02:59N 29°49' W 093°21'  
2017-Aug-13 11:41N 29°43' W 093°20'3 9.4
2017-Aug-13 11:24N 29°45' W 093°21'3 7.3
2017-Aug-13 11:00N 29°48' W 093°21'1 2.0
2017-Aug-13 10:26N 29°49' W 093°20'1 1.4
2017-Aug-13 09:58N 29°49' W 093°21'2 4.8
2017-Aug-13 09:27N 29°46' W 093°21'0 0.0
2017-Aug-13 08:57N 29°46' W 093°21'0 0.0
2017-Aug-13 08:27N 29°46' W 093°21'0 0.0
2017-Aug-13 08:00N 29°46' W 093°21'0 0.1
2017-Aug-13 07:29N 29°46' W 093°21'3 5.9
2017-Aug-13 06:58N 29°49' W 093°20'0 0.1
2017-Aug-13 06:28N 29°49' W 093°20'0 0.0
2017-Aug-13 05:58N 29°49' W 093°20'0 0.0
2017-Aug-13 05:28N 29°49' W 093°20'0 0.0
2017-Aug-13 04:58N 29°49' W 093°20'0 0.0
2017-Aug-13 04:28N 29°49' W 093°20'0 0.0
2017-Aug-13 03:58N 29°49' W 093°20'0 0.0
2017-Aug-13 03:25N 29°49' W 093°20'0 0.0
2017-Aug-13 02:58N 29°49' W 093°20'0 0.0
2017-Aug-13 02:28N 29°49' W 093°20'0 0.0
2017-Aug-13 01:58N 29°49' W 093°20'0 0.0
2017-Aug-13 01:22N 29°49' W 093°20'0 0.0
2017-Aug-13 00:58N 29°49' W 093°20'0 0.0
2017-Aug-13 00:22N 29°49' W 093°20'0 0.0
2017-Aug-12 23:58N 29°49' W 093°20'0 0.0
2017-Aug-12 23:28N 29°49' W 093°20'0 0.0
2017-Aug-12 22:55N 29°49' W 093°20'0 0.0
2017-Aug-12 22:28N 29°49' W 093°20'0 0.0
2017-Aug-12 21:58N 29°49' W 093°20'0 0.0
2017-Aug-12 21:28N 29°49' W 093°20'0 0.0
2017-Aug-12 20:58N 29°49' W 093°20'0 0.0
2017-Aug-12 20:16N 29°49' W 093°20'0 0.0
2017-Aug-12 19:58N 29°49' W 093°20'0 0.0
2017-Aug-12 19:16N 29°49' W 093°20'0 0.0
2017-Aug-12 18:58N 29°49' W 093°20'0 0.0
2017-Aug-12 18:25N 29°49' W 093°20'0 0.0
2017-Aug-12 17:58N 29°49' W 093°20'0 0.0
2017-Aug-12 17:22N 29°49' W 093°20'0 0.0
2017-Aug-12 16:58N 29°49' W 093°20'0 0.0
2017-Aug-12 16:28N 29°49' W 093°20'0 0.0
2017-Aug-12 15:40N 29°49' W 093°20'0 0.0
2017-Aug-12 15:28N 29°49' W 093°20'0 0.0
2017-Aug-12 14:58N 29°49' W 093°20'0 0.0
2017-Aug-12 14:28N 29°49' W 093°20'0 0.0
2017-Aug-12 13:52N 29°49' W 093°20'0 0.0
2017-Aug-12 13:28N 29°49' W 093°20'0 0.0
2017-Aug-12 12:58N 29°49' W 093°20'0 0.0
2017-Aug-12 12:28N 29°49' W 093°20'0 0.0
2017-Aug-12 11:58N 29°49' W 093°20'0 0.0
2017-Aug-12 11:25N 29°49' W 093°20'0 0.0
2017-Aug-12 10:58N 29°49' W 093°20'0 0.0
2017-Aug-12 10:28N 29°49' W 093°20'0 0.0
2017-Aug-12 09:52N 29°49' W 093°20'0 0.0
2017-Aug-12 09:19N 29°49' W 093°20'0 0.0
2017-Aug-12 08:58N 29°49' W 093°20'0 0.0
2017-Aug-12 08:28N 29°49' W 093°20'0 0.0
2017-Aug-12 07:58N 29°49' W 093°20'0 0.0
2017-Aug-12 07:22N 29°49' W 093°20'0 0.0
2017-Aug-12 06:58N 29°49' W 093°20'0 0.0
2017-Aug-12 06:28N 29°49' W 093°20'0 0.0
2017-Aug-12 05:07N 29°49' W 093°20'0 0.0
2017-Aug-12 04:34N 29°49' W 093°20'0 0.0
2017-Aug-12 04:13N 29°49' W 093°20'0 0.0
2017-Aug-12 03:40N 29°49' W 093°20'0 0.0
2017-Aug-12 03:28N 29°49' W 093°20'0 0.0
2017-Aug-12 02:55N 29°49' W 093°20'0 0.0
2017-Aug-12 02:28N 29°49' W 093°20'0 0.0
2017-Aug-12 01:52N 29°49' W 093°20'0 0.0
2017-Aug-12 01:28N 29°49' W 093°20'0 0.0
2017-Aug-12 00:55N 29°49' W 093°20'0 0.0
2017-Aug-12 00:22N 29°49' W 093°20'0 0.0
2017-Aug-11 23:50N 29°49' W 093°20'0 0.0
2017-Aug-11 23:26N 29°49' W 093°20'0 0.0
2017-Aug-11 22:59N 29°49' W 093°20'0 0.0
2017-Aug-11 22:23N 29°49' W 093°20'0 0.0
2017-Aug-11 21:56N 29°49' W 093°20'0 0.0
2017-Aug-11 21:26N 29°49' W 093°20'0 0.0
2017-Aug-11 20:56N 29°49' W 093°20'0 0.0
2017-Aug-11 20:29N 29°49' W 093°20'0 0.0
2017-Aug-11 19:56N 29°49' W 093°20'0 0.0
2017-Aug-11 19:30N 29°49' W 093°20'0 0.0
2017-Aug-11 19:00N 29°49' W 093°20'0 0.0
2017-Aug-11 18:24N 29°49' W 093°20'0 0.0
2017-Aug-11 17:51N 29°49' W 093°20'0 0.0
2017-Aug-11 17:30N 29°49' W 093°20'0 0.0
2017-Aug-11 17:00N 29°49' W 093°20'0 0.0
2017-Aug-11 16:24N 29°49' W 093°20'0 0.0
2017-Aug-11 15:54N 29°49' W 093°20'0 0.0
2017-Aug-11 15:27N 29°49' W 093°20'0 0.0
2017-Aug-11 14:42N 29°49' W 093°20'0 0.0
2017-Aug-11 14:00N 29°49' W 093°20'0 0.0
2017-Aug-11 13:27N 29°49' W 093°20'0 0.0
2017-Aug-11 12:57N 29°49' W 093°20'0 0.0
2017-Aug-11 12:30N 29°49' W 093°20'0 0.0
2017-Aug-11 12:00N 29°49' W 093°20'0 0.0
2017-Aug-11 11:30N 29°49' W 093°20'0 0.0
2017-Aug-11 11:00N 29°49' W 093°20'0 0.0
2017-Aug-11 10:30N 29°49' W 093°20'0 0.0
2017-Aug-11 10:00N 29°49' W 093°20'0 0.0
2017-Aug-11 09:30N 29°49' W 093°20'0 0.0
2017-Aug-11 09:00N 29°49' W 093°20'0 0.0
2017-Aug-11 08:30N 29°49' W 093°20'0 0.0
2017-Aug-11 08:00N 29°49' W 093°20'0 0.0
2017-Aug-11 07:30N 29°49' W 093°20'0 0.0
2017-Aug-11 06:51N 29°49' W 093°20'0 0.0
2017-Aug-11 06:30N 29°49' W 093°20'0 0.0
2017-Aug-11 06:00N 29°49' W 093°20'0 0.0
2017-Aug-11 05:24N 29°49' W 093°20'0 0.0
2017-Aug-11 04:54N 29°49' W 093°20'0 0.0
2017-Aug-11 04:27N 29°49' W 093°20'0 0.0
2017-Aug-11 03:54N 29°49' W 093°20'0 0.0
2017-Aug-11 03:27N 29°49' W 093°20'0 0.0
2017-Aug-11 03:00N 29°49' W 093°20'0 0.0
2017-Aug-11 02:30N 29°49' W 093°20'0 0.0
2017-Aug-11 02:00N 29°49' W 093°20'0 0.0
2017-Aug-11 01:30N 29°49' W 093°20'0 0.0
2017-Aug-11 00:54N 29°49' W 093°20'0 0.2
2017-Aug-11 00:27N 29°49' W 093°20'0 0.0
2017-Aug-10 23:59N 29°49' W 093°20'0 0.2
2017-Aug-10 23:20N 29°49' W 093°20'0 0.0
2017-Aug-10 22:56N 29°49' W 093°20'0 0.0
2017-Aug-10 22:29N 29°49' W 093°20'0 0.0
2017-Aug-10 21:59N 29°49' W 093°20'0 0.0
2017-Aug-10 21:29N 29°49' W 093°20'0 0.0
2017-Aug-10 20:59N 29°49' W 093°20'0 0.0
2017-Aug-10 20:29N 29°49' W 093°20'0 0.0
2017-Aug-10 19:59N 29°49' W 093°20'0 0.0
2017-Aug-10 19:28N 29°49' W 093°20'0 0.0
2017-Aug-10 18:58N 29°49' W 093°20'0 0.0
2017-Aug-10 18:28N 29°49' W 093°20'0 0.0
2017-Aug-10 17:58N 29°49' W 093°20'0 0.0
2017-Aug-10 17:28N 29°49' W 093°20'0 0.0
2017-Aug-10 16:58N 29°49' W 093°20'0 0.0
2017-Aug-10 16:28N 29°49' W 093°20'0 0.0
2017-Aug-10 15:58N 29°49' W 093°20'0 0.0
2017-Aug-10 15:25N 29°49' W 093°20'0 0.0
2017-Aug-10 14:55N 29°49' W 093°20'0 0.0
2017-Aug-10 14:25N 29°49' W 093°20'0 0.0
2017-Aug-10 13:55N 29°49' W 093°20'0 0.0
2017-Aug-10 13:28N 29°49' W 093°20'0 0.0
2017-Aug-10 12:58N 29°49' W 093°20'0 0.0
2017-Aug-10 12:25N 29°49' W 093°20'0 0.0
2017-Aug-10 11:55N 29°49' W 093°20'  

Dump ship's entire track history